This is the latest recevied weather packets stored in our database for station/object EA3FHP. If no packets are shown the sender has not sent any weather packets the latest 10 day(s).
| Time | Temp. | Humidity | Pressure | Rain* | Wind** | Luminosity | Snow |
|---|---|---|---|---|---|---|---|
| 1777048203 | 20.56° C | 55% | 1018.1 hPa | 0 mm | - | - | - |
| 1777047603 | 21.11° C | 54% | 1018.1 hPa | 0 mm | - | - | - |
| 1777047003 | 20.56° C | 54% | 1018 hPa | 0 mm | - | - | - |
| 1777046404 | 21.11° C | 55% | 1018.3 hPa | 0 mm | - | - | - |
| 1777045803 | 21.67° C | 55% | 1018.2 hPa | 0 mm | - | - | - |
| 1777045204 | 21.67° C | 55% | 1018.1 hPa | 0 mm | - | - | - |
| 1777044603 | 21.67° C | 52% | 1018.3 hPa | 0 mm | - | - | - |
| 1777044004 | 21.67° C | 52% | 1018.3 hPa | 0 mm | - | - | - |
| 1777043404 | 21.67° C | 53% | 1018 hPa | 0 mm | - | - | - |
| 1777042803 | 22.22° C | 52% | 1018.3 hPa | 0 mm | - | - | - |
| 1777042203 | 22.22° C | 51% | 1018.4 hPa | 0 mm | - | - | - |
| 1777041603 | 22.22° C | 51% | 1018.5 hPa | 0 mm | - | - | - |
| 1777041004 | 22.22° C | 51% | 1018.3 hPa | 0 mm | - | - | - |
| 1777040404 | 22.22° C | 51% | 1018.5 hPa | 0 mm | - | - | - |
| 1777039804 | 22.78° C | 50% | 1018.8 hPa | 0 mm | - | - | - |
| 1777039262 | 22.22° C | 53% | 1018.8 hPa | 0 mm | - | - | - |
| 1776979804 | 9.44° C | 78% | 1021.9 hPa | 0 mm | - | - | - |
| 1776979204 | 10° C | 77% | 1021.9 hPa | 0 mm | - | - | - |
| 1776978604 | 10° C | 77% | 1021.8 hPa | 0 mm | - | - | - |
| 1776978004 | 10° C | 75% | 1021.8 hPa | 0 mm | - | - | - |
| 1776977404 | 10.56° C | 74% | 1021.9 hPa | 0 mm | - | - | - |
| 1776976804 | 11.11° C | 72% | 1021.9 hPa | 0 mm | - | - | - |
| 1776976204 | 11.11° C | 72% | 1022 hPa | 0 mm | - | - | - |
| 1776975604 | 11.11° C | 71% | 1022 hPa | 0 mm | - | - | - |
| 1776975005 | 11.67° C | 69% | 1022 hPa | 0 mm | - | - | - |
* Rain latest hour (hover to see other rain measurements)
** Current wind speed in m/s (hover to see current wind gust speed)